Time;durP1;ratioP1;P1;durP2;ratioP2;P2;SDS_P1;SDS_P2;PMS_P1;PMS_P2;Temp;Humidity;BMP_temperature;BMP_pressure;BME280_temperature;BME280_humidity;BME280_pressure;Samples;Min_cycle;Max_cycle;Signal;HPM_P1;HPM_P2
2021/11/05 00:00:13;;;;;;;6.93;6.23;;;;;;;6.81;100.00;100358.88;5072501;28;20241;-73
2021/11/05 00:02:39;;;;;;;5.43;4.90;;;;;;;6.81;100.00;100377.06;5072523;28;20277;-76
2021/11/05 00:05:04;;;;;;;7.00;5.63;;;;;;;6.80;100.00;100368.13;5072326;28;20717;-73
2021/11/05 00:07:30;;;;;;;5.07;4.67;;;;;;;6.78;100.00;100374.91;5072163;28;20759;-73
2021/11/05 00:09:55;;;;;;;8.37;7.37;;;;;;;6.77;100.00;100376.00;5072182;28;20677;-73
2021/11/05 00:12:21;;;;;;;12.10;6.83;;;;;;;6.79;100.00;100381.97;5072106;28;20521;-74
2021/11/05 00:14:46;;;;;;;7.13;6.43;;;;;;;6.77;100.00;100378.72;5072039;28;20202;-73
2021/11/05 00:17:12;;;;;;;8.23;6.83;;;;;;;6.76;100.00;100375.19;5072020;28;20202;-73
2021/11/05 00:19:38;;;;;;;6.50;5.97;;;;;;;6.77;100.00;100395.81;5072222;28;20661;-74
2021/11/05 00:22:05;;;;;;;7.53;5.77;;;;;;;6.78;100.00;100383.88;5070728;28;20178;-72
2021/11/05 00:24:30;;;;;;;6.50;5.90;;;;;;;6.78;100.00;100388.50;5071747;28;20175;-75
2021/11/05 00:26:55;;;;;;;3.80;3.00;;;;;;;6.79;100.00;100392.81;5071879;28;20185;-73
2021/11/05 00:29:21;;;;;;;7.47;6.17;;;;;;;6.77;100.00;100386.88;5070462;28;20185;-73
2021/11/05 00:31:46;;;;;;;8.83;7.93;;;;;;;6.80;100.00;100402.63;5072031;28;20182;-73
2021/11/05 00:34:12;;;;;;;4.67;3.50;;;;;;;6.78;100.00;100400.16;5071689;28;20202;-73
2021/11/05 00:36:37;;;;;;;10.73;9.37;;;;;;;6.78;100.00;100402.88;5071918;28;20174;-73
2021/11/05 00:39:02;;;;;;;11.00;7.70;;;;;;;6.78;100.00;100410.22;5071563;28;20526;-73
2021/11/05 00:41:28;;;;;;;5.97;5.47;;;;;;;6.77;100.00;100412.13;5071677;28;20175;-73
2021/11/05 00:43:53;;;;;;;8.30;7.33;;;;;;;6.78;100.00;100412.94;5071500;28;20211;-73
2021/11/05 00:46:19;;;;;;;8.27;7.43;;;;;;;6.77;100.00;100411.31;5071572;28;20183;-73
2021/11/05 00:48:44;;;;;;;8.53;7.67;;;;;;;6.77;100.00;100419.44;5071376;28;20177;-73
2021/11/05 00:51:09;;;;;;;9.67;8.23;;;;;;;6.78;100.00;100418.34;5071432;28;20181;-75
2021/11/05 00:53:35;;;;;;;7.70;6.63;;;;;;;6.76;100.00;100424.06;5071575;28;20179;-75
2021/11/05 00:56:00;;;;;;;11.63;10.00;;;;;;;6.77;100.00;100422.16;5071290;28;20206;-74
2021/11/05 00:58:26;;;;;;;8.30;7.60;;;;;;;6.75;100.00;100422.47;5071353;28;20234;-75
2021/11/05 01:00:51;;;;;;;12.10;9.10;;;;;;;6.73;100.00;100432.00;5071354;28;20717;-75
2021/11/05 01:03:17;;;;;;;9.03;7.70;;;;;;;6.71;100.00;100437.72;5071352;28;20262;-75
2021/11/05 01:05:42;;;;;;;10.33;8.33;;;;;;;6.70;100.00;100440.72;5071038;28;20265;-75
2021/11/05 01:08:08;;;;;;;8.33;7.50;;;;;;;6.70;100.00;100446.94;5071341;28;20190;-75
2021/11/05 01:10:35;;;;;;;11.07;9.43;;;;;;;6.68;100.00;100441.00;5070038;28;20182;-75
2021/11/05 01:13:05;;;;;;;4.20;3.80;;;;;;;6.67;100.00;100435.88;5071277;28;20206;-74
2021/11/05 01:15:31;;;;;;;6.87;6.13;;;;;;;6.66;100.00;100442.38;5070934;28;20300;-75
2021/11/05 01:17:57;;;;;;;7.87;7.17;;;;;;;6.65;100.00;100448.88;5071043;28;20174;-74
2021/11/05 01:20:22;;;;;;;7.90;7.17;;;;;;;6.65;100.00;100455.13;5071083;28;20174;-74
2021/11/05 01:22:48;;;;;;;6.43;5.63;;;;;;;6.65;100.00;100452.41;5071085;28;20171;-75
2021/11/05 01:25:15;;;;;;;6.43;5.83;;;;;;;6.65;100.00;100454.31;5069752;28;20182;-75
2021/11/05 01:27:45;;;;;;;16.47;7.23;;;;;;;6.64;100.00;100456.22;5071178;28;20175;-74
2021/11/05 01:30:11;;;;;;;11.60;8.97;;;;;;;6.65;100.00;100465.97;5071145;28;20256;-74
2021/11/05 01:32:37;;;;;;;6.70;6.10;;;;;;;6.65;100.00;100459.75;5071142;28;20257;-74
2021/11/05 01:35:03;;;;;;;8.30;7.20;;;;;;;6.65;100.00;100465.97;5070910;28;20194;-74
2021/11/05 01:37:29;;;;;;;6.60;6.07;;;;;;;6.64;100.00;100482.56;5070795;28;20170;-75
2021/11/05 01:39:54;;;;;;;10.40;8.73;;;;;;;6.66;100.00;100480.41;5070925;28;20307;-75
2021/11/05 01:42:19;;;;;;;13.60;11.57;;;;;;;6.67;100.00;100482.81;5070764;28;20182;-74
2021/11/05 01:44:45;;;;;;;13.43;10.20;;;;;;;6.72;100.00;100490.91;5070654;28;20538;-75
2021/11/05 01:47:10;;;;;;;14.47;9.87;;;;;;;6.73;100.00;100489.00;5070664;28;20247;-75
2021/11/05 01:49:36;;;;;;;8.87;7.57;;;;;;;6.73;100.00;100480.88;5070885;28;20162;-75
2021/11/05 01:52:02;;;;;;;8.40;7.53;;;;;;;6.73;100.00;100489.00;5070945;28;20170;-75
2021/11/05 01:54:27;;;;;;;10.83;9.73;;;;;;;6.74;100.00;100480.56;5071032;28;20256;-75
2021/11/05 01:56:54;;;;;;;9.70;6.97;;;;;;;6.75;100.00;100562.84;5070801;28;20642;-75
2021/11/05 01:59:30;;;;;;;8.13;7.33;;;;;;;6.75;100.00;100552.78;5071046;28;20176;-74
2021/11/05 02:01:57;;;;;;;9.73;8.73;;;;;;;6.76;100.00;100529.97;5070894;28;20197;-75
2021/11/05 02:04:22;;;;;;;8.67;7.80;;;;;;;6.77;100.00;100528.88;5070515;28;20191;-75
2021/11/05 02:06:50;;;;;;;12.03;10.13;;;;;;;6.77;100.00;100537.00;5073109;28;20217;-75
2021/11/05 02:09:19;;;;;;;14.07;11.00;;;;;;;6.77;100.00;100522.63;5074629;28;20170;-74
2021/11/05 02:11:46;;;;;;;14.20;8.40;;;;;;;6.75;100.00;100531.06;5074406;28;20174;-75
2021/11/05 02:14:18;;;;;;;7.00;6.13;;;;;;;6.74;100.00;100531.34;5074123;28;20661;-74
2021/11/05 02:16:46;;;;;;;7.13;4.23;;;;;;;6.72;100.00;100526.22;5074521;28;20167;-75
2021/11/05 02:19:13;;;;;;;7.13;6.43;;;;;;;6.69;100.00;100536.84;5074328;28;20540;-75
2021/11/05 02:21:41;;;;;;;12.10;8.77;;;;;;;6.68;100.00;100537.94;5074387;28;20173;-75
2021/11/05 02:24:07;;;;;;;9.07;7.97;;;;;;;6.66;100.00;100546.34;5072900;28;20643;-74
2021/11/05 02:26:34;;;;;;;7.47;6.80;;;;;;;6.64;100.00;100553.94;5072675;28;20616;-74
2021/11/05 02:28:59;;;;;;;6.70;6.10;;;;;;;6.62;100.00;100547.19;5074056;28;20173;-74
2021/11/05 02:31:24;;;;;;;12.00;9.33;;;;;;;6.62;100.00;100561.56;5073955;28;20583;-74
2021/11/05 02:33:50;;;;;;;10.23;8.90;;;;;;;6.64;100.00;100572.94;5073897;28;20224;-74
2021/11/05 02:36:15;;;;;;;7.93;7.23;;;;;;;6.64;100.00;100574.84;5074286;28;20221;-74
2021/11/05 02:38:41;;;;;;;15.47;11.67;;;;;;;6.64;100.00;100581.09;5073979;28;20185;-74
2021/11/05 02:41:06;;;;;;;10.60;9.30;;;;;;;6.68;100.00;100589.50;5073834;28;20171;-74
2021/11/05 02:43:32;;;;;;;12.80;11.23;;;;;;;6.68;100.00;100592.22;5073886;28;20167;-75
2021/11/05 02:45:57;;;;;;;18.07;12.70;;;;;;;6.70;100.00;100598.19;5073896;28;20284;-75
2021/11/05 02:48:22;;;;;;;13.60;12.23;;;;;;;6.71;100.00;100599.78;5073709;28;20175;-74
2021/11/05 02:50:48;;;;;;;18.07;12.17;;;;;;;6.72;100.00;100596.00;5073778;28;20201;-74
2021/11/05 02:53:14;;;;;;;17.63;13.37;;;;;;;6.73;100.00;100606.56;5073495;28;20178;-75
2021/11/05 02:55:39;;;;;;;17.13;12.43;;;;;;;6.76;100.00;100610.63;5073414;28;20213;-74
2021/11/05 02:58:05;;;;;;;19.07;10.43;;;;;;;6.75;100.00;100600.84;5073397;28;20270;-74
2021/11/05 03:00:31;;;;;;;19.20;12.83;;;;;;;6.72;100.00;100601.41;5073595;28;20281;-75
2021/11/05 03:02:57;;;;;;;13.33;9.47;;;;;;;6.73;100.00;100613.91;5072385;28;20549;-75
2021/11/05 03:05:22;;;;;;;11.83;8.17;;;;;;;6.70;100.00;100619.91;5073410;28;20278;-75
2021/11/05 03:07:48;;;;;;;14.03;10.93;;;;;;;6.71;100.00;100619.63;5073407;28;20186;-74
2021/11/05 03:10:15;;;;;;;14.77;9.57;;;;;;;6.71;100.00;100621.53;5073538;28;20170;-75
2021/11/05 03:12:42;;;;;;;10.97;9.07;;;;;;;6.71;100.00;100616.09;5073467;28;20491;-75
2021/11/05 03:15:08;;;;;;;16.00;11.43;;;;;;;6.71;100.00;100626.94;5073206;28;20190;-74
2021/11/05 03:17:34;;;;;;;15.63;9.17;;;;;;;6.71;100.00;100635.09;5072242;28;20167;-74
2021/11/05 03:20:00;;;;;;;9.23;8.37;;;;;;;6.68;100.00;100633.75;5073177;28;20169;-74
2021/11/05 03:22:25;;;;;;;8.37;7.60;;;;;;;6.66;100.00;100633.22;5073135;28;20253;-74
2021/11/05 03:24:51;;;;;;;11.97;8.93;;;;;;;6.64;100.00;100626.44;5072831;28;20569;-75
2021/11/05 03:27:17;;;;;;;3.10;2.80;;;;;;;6.58;100.00;100628.38;5073160;28;20170;-75
2021/11/05 03:29:42;;;;;;;5.00;4.57;;;;;;;6.55;100.00;100645.22;5072884;28;20421;-74
2021/11/05 03:32:08;;;;;;;6.87;6.30;;;;;;;6.51;100.00;100642.28;5072947;28;20246;-74
2021/11/05 03:34:34;;;;;;;9.13;6.17;;;;;;;6.47;100.00;100643.09;5073086;28;20202;-74
2021/11/05 03:36:59;;;;;;;5.80;5.13;;;;;;;6.44;100.00;100643.66;5071703;28;20657;-75
2021/11/05 03:39:25;;;;;;;9.90;7.03;;;;;;;6.42;100.00;100643.94;5072728;28;20621;-74
2021/11/05 03:41:50;;;;;;;3.97;3.70;;;;;;;6.40;100.00;100656.16;5072929;28;20178;-75
2021/11/05 03:44:16;;;;;;;3.97;3.43;;;;;;;6.40;100.00;100653.44;5072688;28;20174;-74
2021/11/05 03:46:41;;;;;;;10.93;9.43;;;;;;;6.38;100.00;100655.63;5071414;28;20833;-74
2021/11/05 03:49:07;;;;;;;5.83;5.33;;;;;;;6.36;100.00;100658.59;5072698;28;20182;-75
2021/11/05 03:51:33;;;;;;;5.77;4.10;;;;;;;6.36;100.00;100661.31;5072640;28;20183;-74
2021/11/05 03:53:58;;;;;;;8.13;6.20;;;;;;;6.36;100.00;100669.44;5072516;28;20529;-74
2021/11/05 03:56:25;;;;;;;5.53;4.73;;;;;;;6.36;100.00;100664.03;5072396;28;20202;-74
2021/11/05 03:58:50;;;;;;;16.83;9.20;;;;;;;6.38;100.00;100661.06;5070919;28;20174;-74
2021/11/05 04:01:19;;;;;;;21.90;12.00;;;;;;;6.39;100.00;100673.53;5071139;28;20177;-74
2021/11/05 04:03:44;;;;;;;8.17;7.00;;;;;;;6.39;100.00;100679.78;5072144;28;20185;-74
2021/11/05 04:06:10;;;;;;;5.60;4.47;;;;;;;6.40;100.00;100678.69;5072472;28;20174;-74
2021/11/05 04:08:35;;;;;;;3.90;3.43;;;;;;;6.39;100.00;100685.19;5072300;28;20563;-74
2021/11/05 04:11:00;;;;;;;13.93;8.33;;;;;;;6.39;100.00;100687.91;5072080;28;20183;-74
2021/11/05 04:13:26;;;;;;;4.23;3.43;;;;;;;6.40;100.00;100694.97;5071996;28;20182;-75
2021/11/05 04:15:51;;;;;;;9.60;7.70;;;;;;;6.40;100.00;100700.38;5071901;28;20206;-74
2021/11/05 04:18:17;;;;;;;5.50;4.07;;;;;;;6.41;100.00;100706.63;5072029;28;20233;-74
2021/11/05 04:20:42;;;;;;;8.73;7.50;;;;;;;6.42;100.00;100706.34;5071983;28;20186;-74
2021/11/05 04:23:07;;;;;;;6.67;6.03;;;;;;;6.42;100.00;100706.34;5071926;28;20186;-73
2021/11/05 04:25:34;;;;;;;7.47;6.83;;;;;;;6.42;100.00;100713.69;5071803;28;20170;-73
2021/11/05 04:28:01;;;;;;;11.53;8.70;;;;;;;6.39;100.00;100717.75;5071897;28;20174;-74
2021/11/05 04:30:26;;;;;;;3.50;3.20;;;;;;;6.40;100.00;100721.28;5071727;28;20175;-74
2021/11/05 04:32:52;;;;;;;7.90;7.20;;;;;;;6.39;100.00;100725.91;5071859;28;20205;-73
2021/11/05 04:35:17;;;;;;;14.67;7.73;;;;;;;6.39;100.00;100735.94;5071392;28;20665;-74
2021/11/05 04:37:42;;;;;;;5.90;5.27;;;;;;;6.39;100.00;100731.34;5069805;28;20703;-75
2021/11/05 04:40:09;;;;;;;4.00;3.63;;;;;;;6.39;100.00;100736.75;5071678;28;20162;-74
2021/11/05 04:42:34;;;;;;;22.20;10.13;;;;;;;6.39;100.00;100739.47;5071459;28;20227;-74
2021/11/05 04:44:59;;;;;;;6.00;5.27;;;;;;;6.40;100.00;100735.66;5071456;28;20579;-75
2021/11/05 04:47:25;;;;;;;8.73;6.43;;;;;;;6.41;100.00;100742.72;5071358;28;20261;-74
2021/11/05 04:49:50;;;;;;;11.30;8.80;;;;;;;6.43;100.00;100739.72;5071508;28;20227;-74
2021/11/05 04:52:15;;;;;;;8.07;7.33;;;;;;;6.45;100.00;100753.81;5071438;28;20194;-74
2021/11/05 04:54:41;;;;;;;9.87;8.27;;;;;;;6.45;100.00;100756.53;5071451;28;20227;-75
2021/11/05 04:57:09;;;;;;;9.20;6.67;;;;;;;6.44;100.00;100750.31;5071249;28;20688;-74
2021/11/05 04:59:35;;;;;;;4.80;4.40;;;;;;;6.45;100.00;100761.97;5071274;28;20170;-74
2021/11/05 05:02:02;;;;;;;5.03;3.57;;;;;;;6.44;100.00;100760.34;5071481;28;20272;-74
2021/11/05 05:04:27;;;;;;;13.57;10.10;;;;;;;6.43;100.00;100766.88;5069778;28;20206;-74
2021/11/05 05:06:52;;;;;;;5.03;4.63;;;;;;;6.41;100.00;100767.16;5070965;28;20214;-74
2021/11/05 05:09:18;;;;;;;9.37;7.27;;;;;;;6.42;100.00;100774.19;5071198;28;20171;-75
2021/11/05 05:11:46;;;;;;;12.83;9.47;;;;;;;6.43;100.00;100778.53;5072805;28;20302;-75
2021/11/05 05:14:13;;;;;;;12.13;7.80;;;;;;;6.43;100.00;100783.97;5073753;28;20236;-75
2021/11/05 05:16:38;;;;;;;6.50;5.17;;;;;;;6.42;100.00;100787.75;5072119;28;20213;-75
2021/11/05 05:19:03;;;;;;;2.53;2.33;;;;;;;6.41;100.00;100788.84;5071673;28;20179;-75
2021/11/05 05:21:29;;;;;;;6.77;5.33;;;;;;;6.40;100.00;100787.22;5071317;28;20181;-75
2021/11/05 05:23:54;;;;;;;10.40;8.67;;;;;;;6.40;100.00;100794.56;5070960;28;20174;-75
2021/11/05 05:26:20;;;;;;;7.97;3.07;;;;;;;6.39;100.00;100793.75;5070967;28;20181;-74
2021/11/05 05:28:45;;;;;;;6.00;4.33;;;;;;;6.38;100.00;100800.25;5070947;28;20174;-74
2021/11/05 05:31:10;;;;;;;4.27;4.00;;;;;;;6.39;100.00;100803.78;5069727;28;20179;-75
2021/11/05 05:33:37;;;;;;;7.40;6.73;;;;;;;6.37;100.00;100809.50;5070988;28;20167;-75
2021/11/05 05:36:04;;;;;;;3.13;2.00;;;;;;;6.36;100.00;100809.75;5070923;28;20557;-74
2021/11/05 05:38:30;;;;;;;12.53;6.50;;;;;;;6.36;100.00;100812.47;5070785;28;20183;-75
2021/11/05 05:40:55;;;;;;;1.33;1.33;;;;;;;6.36;100.00;100813.25;5070168;28;20254;-74
2021/11/05 05:43:20;;;;;;;4.17;3.60;;;;;;;6.36;100.00;100823.31;5071084;28;20178;-75
2021/11/05 05:45:46;;;;;;;8.33;5.83;;;;;;;6.37;100.00;100831.22;5070416;28;20637;-74
2021/11/05 05:48:11;;;;;;;4.37;4.03;;;;;;;6.38;100.00;100834.72;5070671;28;20178;-75
2021/11/05 05:50:37;;;;;;;4.10;3.77;;;;;;;6.38;100.00;100842.88;5070719;28;20648;-75
2021/11/05 05:53:02;;;;;;;6.87;5.20;;;;;;;6.37;100.00;100855.63;5070869;28;20181;-75
2021/11/05 05:55:27;;;;;;;4.20;3.80;;;;;;;6.39;100.00;100856.16;5069436;28;20220;-75
2021/11/05 05:57:53;;;;;;;11.63;7.40;;;;;;;6.38;100.00;100851.00;5070707;28;20257;-74
2021/11/05 06:00:18;;;;;;;10.13;9.10;;;;;;;6.38;100.00;100854.53;5070647;28;20249;-73
2021/11/05 06:02:45;;;;;;;6.80;6.13;;;;;;;6.38;100.00;100859.16;5070751;28;20527;-74
2021/11/05 06:05:11;;;;;;;4.20;2.73;;;;;;;6.36;100.00;100855.88;5070638;28;20202;-74
2021/11/05 06:07:37;;;;;;;6.10;3.50;;;;;;;6.36;100.00;100867.53;5070750;28;20220;-74
2021/11/05 06:10:04;;;;;;;2.50;2.30;;;;;;;6.35;100.00;100860.50;5070499;28;20258;-76
2021/11/05 06:12:29;;;;;;;7.77;6.20;;;;;;;6.35;100.00;100862.38;5069073;28;20179;-75
2021/11/05 06:14:55;;;;;;;6.87;4.87;;;;;;;6.36;100.00;100872.16;5070070;28;20252;-74
2021/11/05 06:17:20;;;;;;;4.07;3.33;;;;;;;6.35;100.00;100870.53;5070118;28;20265;-74
2021/11/05 06:19:45;;;;;;;7.97;7.27;;;;;;;6.35;100.00;100871.34;5069101;28;20182;-74
2021/11/05 06:22:11;;;;;;;10.47;7.70;;;;;;;6.37;100.00;100877.34;5070349;28;20681;-74
2021/11/05 06:24:37;;;;;;;4.03;3.67;;;;;;;6.39;100.00;100882.50;5070413;28;20190;-74
2021/11/05 06:27:03;;;;;;;2.77;2.57;;;;;;;6.41;100.00;100885.75;5070392;28;20163;-74
2021/11/05 06:29:28;;;;;;;2.07;1.97;;;;;;;6.42;100.00;100880.03;5070499;28;20170;-74
2021/11/05 06:31:54;;;;;;;3.23;2.97;;;;;;;6.44;100.00;100890.63;5070361;28;20174;-74
2021/11/05 06:34:19;;;;;;;8.07;6.47;;;;;;;6.45;100.00;100901.19;5069988;28;20225;-74
2021/11/05 06:36:44;;;;;;;8.80;7.37;;;;;;;6.45;100.00;100912.06;5070538;28;20186;-74
2021/11/05 06:39:10;;;;;;;3.43;2.67;;;;;;;6.44;100.00;100913.13;5070039;28;20182;-74
2021/11/05 06:41:36;;;;;;;4.50;4.10;;;;;;;6.46;100.00;100915.56;5070226;28;20175;-74
2021/11/05 06:44:02;;;;;;;5.90;4.20;;;;;;;6.45;100.00;100922.91;5069848;28;20179;-73
2021/11/05 06:46:27;;;;;;;4.83;4.43;;;;;;;6.45;100.00;100930.25;5070124;28;20183;-74
2021/11/05 06:48:53;;;;;;;9.27;7.53;;;;;;;6.44;100.00;100924.00;5068617;28;20393;-74
2021/11/05 06:51:18;;;;;;;5.43;2.10;;;;;;;6.44;100.00;100934.84;5071561;28;20295;-75
2021/11/05 06:53:44;;;;;;;3.43;2.70;;;;;;;6.43;100.00;100935.94;5070272;28;20219;-73
2021/11/05 06:56:10;;;;;;;3.73;3.20;;;;;;;6.41;100.00;100940.84;5073672;28;20248;-73
2021/11/05 06:58:36;;;;;;;3.70;3.37;;;;;;;6.40;100.00;100947.34;5072172;28;20809;-73
2021/11/05 07:01:05;;;;;;;8.53;6.67;;;;;;;6.42;100.00;100941.63;5073686;28;20189;-75
2021/11/05 07:03:31;;;;;;;6.83;5.60;;;;;;;6.41;100.00;100940.84;5070779;28;20318;-76
2021/11/05 07:05:58;;;;;;;7.70;6.00;;;;;;;6.43;100.00;100951.41;5072701;28;20183;-73
2021/11/05 07:08:23;;;;;;;3.47;2.90;;;;;;;6.44;100.00;100962.00;5073402;28;20630;-74
2021/11/05 07:10:49;;;;;;;8.07;5.87;;;;;;;6.44;100.00;100962.00;5073483;28;20179;-74
2021/11/05 07:13:14;;;;;;;3.03;2.43;;;;;;;6.47;100.00;100969.59;5072743;28;20293;-77
2021/11/05 07:15:39;;;;;;;4.70;4.30;;;;;;;6.49;100.00;100980.97;5070036;28;20206;-76
2021/11/05 07:18:05;;;;;;;6.60;4.77;;;;;;;6.51;100.00;100986.97;5072727;28;20187;-74
2021/11/05 07:20:33;;;;;;;11.87;7.13;;;;;;;6.53;100.00;100994.84;5072719;28;20178;-74
2021/11/05 07:22:59;;;;;;;1.57;1.47;;;;;;;6.56;100.00;100999.72;5071237;28;20634;-73
2021/11/05 07:25:25;;;;;;;4.67;4.27;;;;;;;6.59;100.00;101003.81;5072798;28;20175;-73
2021/11/05 07:27:51;;;;;;;3.03;2.83;;;;;;;6.64;100.00;100996.47;5073019;28;20269;-74
2021/11/05 07:30:16;;;;;;;7.53;6.90;;;;;;;6.69;100.00;101001.09;5072847;28;20253;-74
2021/11/05 07:32:45;;;;;;;14.27;7.83;;;;;;;6.73;100.00;101013.84;5072759;28;20213;-74
2021/11/05 07:35:12;;;;;;;14.27;6.80;;;;;;;6.73;100.00;101016.56;5072589;28;20259;-74
2021/11/05 07:37:38;;;;;;;5.00;4.47;;;;;;;6.74;100.00;101014.66;5072450;28;20634;-74
2021/11/05 07:40:05;;;;;;;17.10;6.53;;;;;;;6.74;100.00;101026.34;5072609;28;20251;-73
2021/11/05 07:42:30;;;;;;;6.83;6.13;;;;;;;6.74;100.00;101009.22;5072623;28;20198;-74
2021/11/05 07:44:56;;;;;;;5.53;3.50;;;;;;;6.74;100.00;101028.25;5073059;28;20265;-75
2021/11/05 07:47:23;;;;;;;5.77;4.67;;;;;;;6.73;100.00;101030.13;5072772;28;20257;-73
2021/11/05 07:49:50;;;;;;;3.87;2.93;;;;;;;6.73;100.00;101032.03;5072259;28;20190;-74
2021/11/05 07:52:18;;;;;;;7.90;4.43;;;;;;;6.76;100.00;101036.94;5069699;28;20175;-74
2021/11/05 07:54:44;;;;;;;2.00;1.83;;;;;;;6.75;100.00;101040.72;5070470;28;20669;-74
2021/11/05 07:57:09;;;;;;;6.57;4.57;;;;;;;6.71;100.00;101043.19;5070900;28;20240;-74
2021/11/05 07:59:34;;;;;;;13.77;9.13;;;;;;;6.70;100.00;101052.41;5072411;28;20182;-74
2021/11/05 08:02:00;;;;;;;9.37;7.27;;;;;;;6.71;100.00;101058.66;5071893;28;20210;-77
2021/11/05 08:04:25;;;;;;;3.70;2.80;;;;;;;6.70;100.00;101070.59;5071581;28;20558;-76
2021/11/05 08:06:51;;;;;;;9.30;3.57;;;;;;;6.67;100.00;101071.16;5072580;28;20178;-76
2021/11/05 08:09:16;;;;;;;6.63;5.67;;;;;;;6.69;100.00;101074.41;5072232;28;20170;-76
2021/11/05 08:11:41;;;;;;;9.80;8.53;;;;;;;6.68;100.00;101083.63;5072236;28;20177;-77
2021/11/05 08:14:07;;;;;;;18.60;8.53;;;;;;;6.70;100.00;101076.03;5071825;28;20177;-76
2021/11/05 08:16:33;;;;;;;17.83;6.37;;;;;;;6.73;100.00;101091.78;5070613;28;20599;-76
2021/11/05 08:18:58;;;;;;;5.40;4.93;;;;;;;6.75;100.00;101090.41;5071672;28;20166;-76
2021/11/05 08:21:24;;;;;;;1.40;1.37;;;;;;;6.78;100.00;101091.78;5071770;28;20252;-77
2021/11/05 08:23:50;;;;;;;3.40;2.67;;;;;;;6.79;100.00;101098.84;5071397;28;20178;-77
2021/11/05 08:26:16;;;;;;;4.63;3.07;;;;;;;6.82;100.00;101106.47;5071761;28;20243;-76
2021/11/05 08:28:42;;;;;;;11.90;2.83;;;;;;;6.85;100.00;101108.63;5071640;28;20179;-76
2021/11/05 08:31:15;;;;;;;5.30;4.90;;;;;;;6.89;100.00;101109.72;5071670;28;20177;-76
2021/11/05 08:33:41;;;;;;;3.17;3.00;;;;;;;6.92;100.00;101111.06;5071575;28;20258;-77
2021/11/05 08:36:09;;;;;;;9.60;6.60;;;;;;;6.97;100.00;101111.09;5071530;28;20247;-76
2021/11/05 08:38:35;;;;;;;8.87;5.83;;;;;;;7.02;100.00;101116.53;5070151;28;20676;-77
2021/11/05 08:41:01;;;;;;;3.33;2.63;;;;;;;7.03;100.00;101110.81;5071523;28;20202;-77
2021/11/05 08:43:32;;;;;;;4.83;3.70;;;;;;;7.08;100.00;101137.16;5071360;28;20189;-77
2021/11/05 08:46:02;;;;;;;8.27;6.37;;;;;;;7.12;100.00;101143.72;5071212;28;20177;-75
2021/11/05 08:48:29;;;;;;;9.13;5.13;;;;;;;7.16;100.00;101131.19;5071015;28;20177;-77
2021/11/05 08:50:57;;;;;;;3.77;3.47;;;;;;;7.17;100.00;101143.69;5071344;28;20171;-75
2021/11/05 08:53:23;;;;;;;9.30;4.27;;;;;;;7.22;100.00;101143.69;5071277;28;20174;-73
2021/11/05 08:55:48;;;;;;;3.57;3.37;;;;;;;7.22;100.00;101142.88;5070862;28;20202;-74
2021/11/05 08:58:14;;;;;;;3.03;2.83;;;;;;;7.25;100.00;101142.34;5071242;28;20293;-74
2021/11/05 09:00:40;;;;;;;8.00;4.40;;;;;;;7.28;100.00;101149.97;5071134;28;20550;-74
2021/11/05 09:03:06;;;;;;;4.47;4.07;;;;;;;7.27;100.00;101145.63;5071087;28;20186;-74
2021/11/05 09:05:35;;;;;;;5.37;4.87;;;;;;;7.26;100.00;101154.84;5070766;28;20181;-74
2021/11/05 09:08:00;;;;;;;3.43;3.13;;;;;;;7.23;100.00;101139.06;5070979;28;20511;-75
2021/11/05 09:10:26;;;;;;;3.83;3.60;;;;;;;7.25;100.00;101153.22;5071021;28;20171;-75
2021/11/05 09:12:51;;;;;;;4.57;3.53;;;;;;;7.29;100.00;101151.59;5070953;28;20506;-74
2021/11/05 09:15:20;;;;;;;1.97;1.87;;;;;;;7.30;100.00;101158.66;5069621;28;20563;-74
2021/11/05 09:17:46;;;;;;;2.67;2.30;;;;;;;7.32;100.00;101160.00;5070806;28;20261;-74
2021/11/05 09:20:11;;;;;;;6.47;5.20;;;;;;;7.36;100.00;101171.16;5071099;28;20257;-74
2021/11/05 09:22:37;;;;;;;10.10;2.57;;;;;;;7.35;100.00;101177.66;5069536;28;20376;-73
2021/11/05 09:25:06;;;;;;;3.67;2.70;;;;;;;7.34;100.00;101173.31;5070610;28;20185;-74
2021/11/05 09:27:31;;;;;;;2.30;1.73;;;;;;;7.37;100.00;101213.53;5069505;28;20171;-74
2021/11/05 09:29:56;;;;;;;2.60;2.40;;;;;;;7.36;100.00;101185.53;5070742;28;20171;-74
2021/11/05 09:32:24;;;;;;;1.97;1.70;;;;;;;7.38;100.00;101191.56;5070824;28;20200;-74
2021/11/05 09:34:50;;;;;;;4.27;1.80;;;;;;;7.42;100.00;101192.63;5070525;28;20198;-74
2021/11/05 09:37:16;;;;;;;1.53;1.43;;;;;;;7.54;100.00;101197.81;5070663;28;20175;-73
2021/11/05 09:39:42;;;;;;;2.00;1.83;;;;;;;7.70;100.00;101204.88;5070478;28;20261;-74
2021/11/05 09:42:08;;;;;;;2.50;2.27;;;;;;;7.80;100.00;101198.56;5070653;28;20163;-74
2021/11/05 09:44:34;;;;;;;1.90;1.57;;;;;;;7.85;100.00;101206.75;5070409;28;20738;-74
2021/11/05 09:47:03;;;;;;;1.70;1.53;;;;;;;7.89;100.00;101210.53;5070386;28;20185;-74
2021/11/05 09:49:29;;;;;;;1.87;1.77;;;;;;;7.96;100.00;101215.72;5070483;28;20177;-74
2021/11/05 09:51:59;;;;;;;2.03;1.90;;;;;;;7.92;100.00;101217.34;5070614;28;20183;-73
2021/11/05 09:54:28;;;;;;;2.63;1.53;;;;;;;7.87;100.00;101220.06;5070276;28;20175;-74
2021/11/05 09:56:54;;;;;;;2.13;2.03;;;;;;;7.90;100.00;101219.53;5070574;28;20182;-74
2021/11/05 09:59:20;;;;;;;1.43;1.03;;;;;;;7.91;100.00;101221.16;5070507;28;20445;-74
2021/11/05 10:01:46;;;;;;;4.77;2.63;;;;;;;7.93;100.00;101227.94;5070412;28;20688;-74
2021/11/05 10:04:12;;;;;;;3.40;3.10;;;;;;;7.90;100.00;101227.69;5070061;28;20177;-74
2021/11/05 10:06:37;;;;;;;3.83;2.97;;;;;;;7.93;100.00;101233.38;5070275;28;20197;-74
2021/11/05 10:09:12;;;;;;;2.30;2.10;;;;;;;7.88;100.00;101244.28;5070387;28;20178;-73
2021/11/05 10:11:37;;;;;;;0.97;0.97;;;;;;;7.84;100.00;101235.03;5069204;28;20228;-74
2021/11/05 10:14:03;;;;;;;4.73;3.37;;;;;;;7.89;100.00;101235.03;5070152;28;20202;-74
2021/11/05 10:16:32;;;;;;;5.50;3.17;;;;;;;7.94;100.00;101239.63;5070250;28;20297;-74
2021/11/05 10:19:06;;;;;;;3.70;3.00;;;;;;;7.97;100.00;101252.72;5070161;28;20653;-74
2021/11/05 10:21:44;;;;;;;2.37;1.77;;;;;;;8.05;100.00;101249.44;5070348;28;20163;-74
2021/11/05 10:24:20;;;;;;;2.57;1.93;;;;;;;8.09;100.00;101245.06;5070130;28;20201;-74
2021/11/05 10:26:47;;;;;;;5.60;2.97;;;;;;;8.16;100.00;101255.69;5072266;28;20178;-74
2021/11/05 10:29:29;;;;;;;2.10;1.80;;;;;;;8.26;100.00;101256.47;5072458;28;20261;-74
2021/11/05 10:32:01;;;;;;;8.10;3.57;;;;;;;8.29;100.00;101257.81;5074006;28;20190;-75
2021/11/05 10:34:27;;;;;;;3.37;2.23;;;;;;;8.32;100.00;101260.00;5074098;28;20213;-74
2021/11/05 10:36:52;;;;;;;1.77;1.67;;;;;;;8.40;100.00;101266.81;5073919;28;20361;-75
2021/11/05 10:39:18;;;;;;;3.50;3.20;;;;;;;8.48;100.00;101271.69;5074086;28;20280;-74
2021/11/05 10:41:44;;;;;;;1.17;1.10;;;;;;;8.52;100.00;101265.41;5073775;28;20170;-74
2021/11/05 10:44:15;;;;;;;1.90;1.80;;;;;;;8.58;100.00;101269.75;5073657;28;20181;-74
2021/11/05 10:46:42;;;;;;;1.80;1.70;;;;;;;8.54;100.00;101271.41;5073722;28;20178;-74
2021/11/05 10:49:21;;;;;;;2.07;1.30;;;;;;;8.51;100.00;101273.84;5073395;28;20167;-74
2021/11/05 10:51:47;;;;;;;4.40;2.87;;;;;;;8.48;100.00;101280.66;5073580;28;20170;-74
2021/11/05 10:54:13;;;;;;;2.97;2.47;;;;;;;8.59;100.00;101282.28;5073225;28;20189;-75
2021/11/05 10:56:40;;;;;;;3.73;3.43;;;;;;;8.60;100.00;101289.34;5073376;28;20212;-74
2021/11/05 10:59:08;;;;;;;4.00;2.63;;;;;;;8.59;100.00;101286.91;5073538;28;20183;-74
2021/11/05 11:01:36;;;;;;;2.27;1.27;;;;;;;8.59;100.00;101293.19;5073449;28;20257;-75
2021/11/05 11:04:06;;;;;;;3.57;3.27;;;;;;;8.60;100.00;101285.81;5071562;28;20174;-74
2021/11/05 11:06:37;;;;;;;2.13;1.93;;;;;;;8.60;100.00;101283.91;5072872;28;20194;-74
2021/11/05 11:09:11;;;;;;;1.50;1.40;;;;;;;8.64;100.00;101295.88;5073045;28;20181;-74
2021/11/05 11:11:41;;;;;;;1.80;1.70;;;;;;;8.68;100.00;101298.03;5073445;28;20312;-73
2021/11/05 11:14:16;;;;;;;4.53;2.17;;;;;;;8.69;100.00;101291.53;5073921;28;20282;-74
2021/11/05 11:16:48;;;;;;;1.30;1.20;;;;;;;8.64;100.00;101305.94;5073493;28;20248;-74